»·PEaware :: N9418F KIPL-KIPL

N9418F :: KIPL-KIPL

FLIGHT INFORMATION

Flight Status: Arrived
Operator: Privately registered:
United States
More flights under this callsign
Pilot: Jari J. (4222)
Aircraft: CESSNA 172 SKYHAWK
(C172)
More flights by this aircraft type
Origin: KIPL Imperial Co
United States
Destination: KIPL Imperial Co
United States
More flights between these airports :: More routes between these airports
Route: DCT
File this flight plan on PilotEdge
Remarks:
Altitude:
(Current/Filed)
2,000ft
Speed:
(Current/Filed)
100kts
Departed: 18-Jul-14 08:56 AM
Arrived: 18-Jul-14 09:23 AM
Distance/Time
Traveled:
0nm/0:27
Distance/Time
To Go:
Arrived

Flight Plot

Page will automatically refresh every two minutes.


Map Options




Map Legend


Flown Route
Filed Route
Departure Airport
Arrival Airport
Navaid (VOR, NDB)
Fix

Horizontal Profiles

Position Reports

Time Latitude Longitude Heading Altitude Ground
Speed
18-Jul-14 08:26 32.836844 -115.572755 153 -52ft 0kts
18-Jul-14 08:27 32.836844 -115.572755 153 -52ft 0kts
18-Jul-14 08:28 32.836844 -115.572755 153 -52ft 0kts
18-Jul-14 08:29 32.836844 -115.572755 153 -52ft 0kts
18-Jul-14 08:30 32.836844 -115.572755 153 -52ft 0kts
18-Jul-14 08:31 32.836844 -115.572755 153 -52ft 0kts
18-Jul-14 08:31 32.836844 -115.572755 153 -52ft 0kts
18-Jul-14 08:32 32.836844 -115.572755 153 -52ft 0kts
18-Jul-14 08:33 32.836844 -115.572755 153 -52ft 0kts
18-Jul-14 08:34 32.836844 -115.572755 153 -52ft 0kts
18-Jul-14 08:35 32.836844 -115.572755 153 -52ft 0kts
18-Jul-14 08:36 32.836844 -115.572755 153 -52ft 0kts
18-Jul-14 08:37 32.836844 -115.572755 153 -52ft 0kts
18-Jul-14 08:38 32.836844 -115.572755 153 -52ft 0kts
18-Jul-14 08:39 32.836844 -115.572755 153 -52ft 0kts
18-Jul-14 08:40 32.836844 -115.572755 153 -52ft 0kts
18-Jul-14 08:41 32.836843 -115.572755 153 -52ft 0kts
18-Jul-14 08:42 32.836842 -115.572754 153 -52ft 0kts
18-Jul-14 08:43 32.836840 -115.572753 153 -52ft 0kts
18-Jul-14 08:44 32.836839 -115.572752 153 -52ft 0kts
18-Jul-14 08:45 32.836837 -115.572751 153 -52ft 0kts
18-Jul-14 08:46 32.836836 -115.572750 153 -52ft 0kts
18-Jul-14 08:47 32.836409 -115.573979 297 -52ft 8kts
18-Jul-14 08:48 32.838312 -115.575721 333 -52ft 9kts
18-Jul-14 08:49 32.841231 -115.577495 333 -52ft 13kts
18-Jul-14 08:50 32.842735 -115.578736 181 -52ft 0kts
18-Jul-14 08:51 32.842730 -115.578736 181 -52ft 0kts
18-Jul-14 08:52 32.842726 -115.578736 181 -52ft 0kts
18-Jul-14 08:53 32.842406 -115.578909 204 -52ft 8kts
18-Jul-14 08:54 32.830359 -115.571897 151 513ft 78kts
18-Jul-14 08:55 32.821515 -115.550311 67 1094ft 103kts
18-Jul-14 08:56 32.847352 -115.548859 347 1142ft 97kts
18-Jul-14 08:57 32.873856 -115.559896 336 1001ft 97kts
18-Jul-14 08:58 32.871774 -115.586132 244 894ft 81kts
18-Jul-14 08:59 32.855043 -115.587148 151 274ft 69kts
18-Jul-14 09:00 32.838469 -115.576823 148 -50ft 57kts
18-Jul-14 09:01 32.817264 -115.564928 158 921ft 94kts
18-Jul-14 09:02 32.813442 -115.537689 48 1063ft 105kts
18-Jul-14 09:03 32.840126 -115.532805 356 1098ft 93kts
18-Jul-14 09:04 32.865418 -115.539315 339 1218ft 93kts
18-Jul-14 09:05 32.881980 -115.561004 264 1151ft 98kts
18-Jul-14 09:07 32.875998 -115.589316 247 708ft 77kts
18-Jul-14 09:08 32.859028 -115.589876 151 346ft 64kts
18-Jul-14 09:09 32.842717 -115.579456 145 -31ft 55kts
18-Jul-14 09:10 32.828484 -115.570705 152 509ft 74kts
18-Jul-14 09:11 32.816712 -115.550652 88 1019ft 106kts
18-Jul-14 09:12 32.839569 -115.538381 355 1004ft 117kts
18-Jul-14 09:13 32.866695 -115.555334 278 929ft 101kts
18-Jul-14 09:14 32.857738 -115.580757 226 431ft 80kts
18-Jul-14 09:15 32.840496 -115.578085 149 -47ft 49kts
18-Jul-14 09:16 32.823971 -115.568365 153 820ft 83kts
18-Jul-14 09:17 32.821844 -115.546066 10 1110ft 109kts
18-Jul-14 09:18 32.855462 -115.546825 356 875ft 104kts
18-Jul-14 09:19 32.869649 -115.568665 255 783ft 106kts
18-Jul-14 09:19 32.861575 -115.589940 183 384ft 78kts
18-Jul-14 09:20 32.844050 -115.580328 149 -7ft 57kts
18-Jul-14 09:21 32.838968 -115.576125 157 -52ft 8kts
18-Jul-14 09:22 32.836696 -115.574723 152 -52ft 11kts
18-Jul-14 09:23 32.836575 -115.572627 1 -52ft 3kts
18-Jul-14 09:24 32.836887 -115.572802 333 -52ft 0kts
18-Jul-14 09:25 32.836887 -115.572802 333 -52ft 0kts
18-Jul-14 09:26 32.836887 -115.572802 333 -52ft 0kts
18-Jul-14 09:27 32.836887 -115.572802 333 -52ft 0kts
18-Jul-14 09:28 32.836887 -115.572802 333 -52ft 0kts
18-Jul-14 09:29 32.836887 -115.572802 333 -52ft 0kts
18-Jul-14 09:30 32.836887 -115.572802 333 -52ft 0kts
18-Jul-14 09:31 32.836887 -115.572802 333 -52ft 0kts
18-Jul-14 09:32 32.836887 -115.572802 333 -52ft 0kts

Navigation Log

Ident Type
Flight plan parsing failed, navigation log unavailable